Thedford, NE

10:57 AM CDT on May 23, 2017 (GMT -0500)
Thedford

Weather History for KTIF - March, 2013

Change the Weather History Date:

Saturday, March 9, 2013

  Actual Average (KANW) Record (KANW)
Temperature  
Mean Temperature 36 °F -  
Max Temperature 44 °F 38 °F 71 °F (2014)
Min Temperature 28 °F 19 °F -5 °F (1998)
Degree Days  
Heating Degree Days 29    
Moisture  
Dew Point 30 °F    
Average Humidity 89    
Maximum Humidity 94    
Minimum Humidity 71    
Precipitation  
Precipitation 0.04 in - - ()
Sea Level Pressure  
Sea Level Pressure 29.74 in    
Wind  
Wind Speed 13 mph (North)    
Max Wind Speed 31 mph    
Max Gust Speed 40 mph    
Visibility 2 miles    
Events Rain , Snow , Thunderstorm    
Averages and records for this station are not official NWS values.
T = Trace of Precipitation, MM = Missing Value Source: NWS Daily Summary

Daily Weather History Graph

Daily Weather History Graph

Search for Another Location

Airport or City:

Trip Planner

Search our weather history database for the weather conditions in past years. The results will help you decide how hot, cold, wet, or windy it might be!

Date:

Astronomy

Mar. 09, 2013 Rise Set
Actual Time 7:03 AM CST 6:42 PM CST
Civil Twilight 6:35 AM CST 7:10 PM CST
Nautical Twilight 6:03 AM CST 7:42 PM CST
Astronomical Twilight 5:31 AM CST 8:15 PM CST
Moon 5:30 AM CST (3/9) 4:45 PM CST (3/9)
Length of Visible Light 12h 34m
Length of Day
11h 38m
Waning Crescent, 5% of the Moon is Illuminated
Mar 9
Waning Crescent
Mar 11
New
Mar 19
First Quarter
Mar 27
Full
Apr 2
Last Quarter

Hourly Weather History & Observations

Time (CST) Temp. Windchill Dew Point Humidity Pressure Visibility Wind Dir Wind Speed Gust Speed Precip Events Conditions
12:15 AM 44.1 °F 40.1 °F 35.1 °F 71% 29.73 in 10.0 mi East 6.9 mph - N/A   Overcast
12:35 AM 43.3 °F 39.2 °F 36.7 °F 77% 29.72 in 4.0 mi East 6.9 mph - N/A   Drizzle
12:55 AM 41.9 °F 40.0 °F 37.9 °F 86% 29.72 in 4.0 mi ENE 3.5 mph - N/A   Light Drizzle
1:15 AM 41.5 °F 38.6 °F 38.5 °F 89% 29.71 in 4.0 mi NNE 4.6 mph - N/A   Overcast
1:35 AM 41.4 °F 37.6 °F 38.5 °F 89% 29.70 in 3.0 mi North 5.8 mph - N/A   Drizzle
1:55 AM 40.5 °F 35.1 °F 37.6 °F 89% 29.69 in 3.0 mi NNE 8.1 mph - N/A Rain Light Rain
2:15 AM 39.7 °F 34.3 °F 37.4 °F 91% 29.69 in 2.5 mi NE 8.1 mph - N/A   Overcast
2:35 AM 39.0 °F 33.4 °F 36.7 °F 91% 29.68 in 1.8 mi NNE 8.1 mph - N/A Thunderstorm Unknown
2:55 AM 37.9 °F 34.4 °F 35.8 °F 92% 29.69 in 1.8 mi NNE 4.6 mph - 0.01 in Thunderstorm Unknown
3:15 AM 37.4 °F 31.4 °F 35.2 °F 92% 29.68 in 2.0 mi NNE 8.1 mph - N/A Rain , Thunderstorm Rain
3:35 AM 37.4 °F 32.1 °F 35.2 °F 92% 29.66 in 1.5 mi NNE 6.9 mph - N/A Rain Rain
3:55 AM 35.6 °F 29.2 °F 33.8 °F 93% 29.66 in 2.0 mi North 8.1 mph - N/A   Drizzle
4:15 AM 34.9 °F 28.3 °F 32.9 °F 92% 29.64 in 2.0 mi NNE 8.1 mph - N/A   Light Drizzle
4:35 AM 34.7 °F 28.1 °F 32.5 °F 92% 29.64 in 2.5 mi NNE 8.1 mph - N/A   Light Drizzle
4:55 AM 34.7 °F 27.5 °F 32.5 °F 92% 29.63 in 1.8 mi NNE 9.2 mph 18.4 mph N/A   Light Drizzle
5:15 AM 34.7 °F 27.5 °F 32.9 °F 93% 29.64 in 1.5 mi North 9.2 mph - N/A Thunderstorm Unknown
5:35 AM 34.7 °F 27.5 °F 32.9 °F 93% 29.66 in 1.8 mi North 9.2 mph 16.1 mph N/A   Overcast
5:55 AM 34.3 °F 26.5 °F 32.5 °F 93% 29.66 in 1.5 mi NNE 10.4 mph - 0.01 in Rain Light Rain
6:15 AM 34.2 °F 25.2 °F 32.4 °F 93% 29.64 in 2.0 mi NNE 12.7 mph 16.1 mph N/A Snow Light Snow
6:35 AM 34.3 °F 27.7 °F 32.5 °F 93% 29.65 in 3.0 mi North 8.1 mph - N/A   Drizzle
6:55 AM 34.2 °F 25.2 °F 32.4 °F 93% 29.65 in 4.0 mi North 12.7 mph 18.4 mph N/A   Light Drizzle
7:15 AM 34.0 °F 27.2 °F 32.2 °F 93% 29.65 in 2.5 mi North 8.1 mph 20.7 mph N/A Rain Rain
7:35 AM 33.8 °F 27.0 °F 32.0 °F 93% 29.65 in 3.0 mi North 8.1 mph - N/A   Drizzle
7:55 AM 33.8 °F 24.8 °F 32.0 °F 93% 29.65 in 3.0 mi North 12.7 mph 19.6 mph N/A   Light Drizzle
8:15 AM 33.8 °F 23.9 °F 32.0 °F 93% 29.65 in 3.0 mi North 15.0 mph 20.7 mph N/A   Overcast
8:35 AM 33.8 °F 25.3 °F 32.0 °F 93% 29.66 in 2.5 mi North 11.5 mph 21.9 mph N/A   Overcast
8:55 AM 33.8 °F 23.9 °F 32.0 °F 93% 29.67 in 2.5 mi North 15.0 mph 20.7 mph N/A   Overcast
9:15 AM 33.6 °F 23.3 °F 32.0 °F 94% 29.67 in 2.5 mi North 16.1 mph - N/A   Drizzle
9:35 AM 33.4 °F 24.3 °F 31.8 °F 94% 29.67 in 3.0 mi North 12.7 mph 19.6 mph N/A   Overcast
9:55 AM 33.3 °F 22.1 °F 31.5 °F 93% 29.68 in 5.0 mi North 18.4 mph 26.5 mph N/A   Overcast
10:15 AM 32.9 °F 21.3 °F 30.7 °F 92% 29.67 in 3.0 mi NNW 19.6 mph 27.6 mph N/A   Overcast
10:35 AM 32.0 °F 20.5 °F 29.3 °F 90% 29.68 in 3.0 mi North 18.4 mph 25.3 mph N/A   Overcast
10:55 AM 31.6 °F 19.0 °F 28.6 °F 88% 29.69 in 5.0 mi North 21.9 mph 26.5 mph N/A   Overcast
11:15 AM 31.1 °F 20.5 °F 28.0 °F 88% 29.69 in 5.0 mi North 15.0 mph 25.3 mph N/A Snow Light Snow
11:35 AM 30.9 °F 19.4 °F 27.5 °F 87% 29.70 in 4.0 mi North 17.3 mph 24.2 mph N/A Snow Light Snow
11:55 AM 30.7 °F 20.0 °F 27.3 °F 87% 29.71 in 2.5 mi North 15.0 mph 26.5 mph 0.01 in Snow Light Snow
12:15 PM 30.7 °F 17.8 °F 27.7 °F 88% 29.69 in 2.5 mi North 21.9 mph 25.3 mph N/A Snow Light Snow
12:35 PM 30.2 °F 18.1 °F 27.0 °F 88% 29.70 in 1.8 mi North 18.4 mph 27.6 mph N/A Snow Light Snow
12:55 PM 29.7 °F 15.5 °F 26.2 °F 87% 29.69 in 0.8 mi North 25.3 mph 32.2 mph N/A Snow Light Snow
1:15 PM 29.5 °F 16.5 °F 25.7 °F 86% 29.70 in 1.8 mi North 20.7 mph 31.1 mph N/A Snow Light Snow
1:35 PM 29.3 °F 16.6 °F 25.7 °F 86% 29.71 in 3.0 mi North 19.6 mph 26.5 mph N/A Snow Light Snow
1:55 PM 29.5 °F 15.5 °F 25.9 °F 86% 29.69 in 4.0 mi North 24.2 mph 32.2 mph N/A Snow Light Snow
2:15 PM 28.9 °F 16.1 °F 25.3 °F 86% 29.70 in 2.5 mi North 19.6 mph 31.1 mph N/A Snow Light Snow
2:35 PM 28.9 °F 14.8 °F 25.5 °F 87% 29.71 in 1.5 mi North 24.2 mph 29.9 mph N/A Snow Light Snow
2:55 PM 28.9 °F 15.1 °F 25.7 °F 88% 29.71 in 0.8 mi North 23.0 mph 28.8 mph N/A Snow Light Snow
3:15 PM 29.3 °F 17.3 °F 26.2 °F 88% 29.73 in 1.2 mi North 17.3 mph 25.3 mph N/A Snow Light Snow
3:35 PM 29.8 °F 17.7 °F 26.6 °F 88% 29.73 in 1.0 mi North 18.4 mph 31.1 mph N/A Snow Light Snow
3:55 PM 29.8 °F 17.3 °F 26.6 °F 88% 29.74 in 0.5 mi North 19.6 mph 27.6 mph 0.01 in Snow Light Snow
4:15 PM 29.8 °F 17.3 °F 27.0 °F 89% 29.74 in 0.5 mi North 19.6 mph 25.3 mph N/A Snow Snow
4:35 PM 30.0 °F 17.5 °F 27.5 °F 90% 29.75 in 0.2 mi North 19.6 mph 24.2 mph N/A Snow Snow
4:55 PM 30.2 °F 18.5 °F 27.5 °F 90% 29.77 in 0.5 mi North 17.3 mph 23.0 mph N/A Snow Snow
5:15 PM 30.2 °F 19.3 °F 28.0 °F 92% 29.77 in 0.2 mi North 15.0 mph 24.2 mph N/A Snow Snow
5:35 PM 30.7 °F 20.0 °F 28.4 °F 91% 29.78 in 0.2 mi North 15.0 mph 21.9 mph N/A Snow Snow
5:55 PM 31.6 °F 18.7 °F 29.3 °F 91% 29.78 in 0.2 mi North 23.0 mph 29.9 mph N/A Snow Snow
6:15 PM 31.8 °F 19.0 °F 28.8 °F 88% 29.79 in 0.8 mi North 23.0 mph 33.4 mph N/A Snow Light Snow
6:35 PM 31.8 °F 19.6 °F 28.4 °F 87% 29.81 in 1.2 mi North 20.7 mph 29.9 mph N/A Snow Light Snow
6:55 PM 31.6 °F 20.4 °F 28.6 °F 88% 29.82 in 1.2 mi North 17.3 mph 25.3 mph N/A Snow Light Snow
7:15 PM 31.5 °F 19.8 °F 28.8 °F 90% 29.83 in 1.2 mi North 18.4 mph 25.3 mph N/A Snow Light Snow
7:35 PM 31.5 °F 19.8 °F 28.6 °F 89% 29.84 in 1.5 mi North 18.4 mph 25.3 mph N/A Snow Light Snow
7:55 PM 31.5 °F 19.8 °F 28.4 °F 88% 29.85 in 2.0 mi North 18.4 mph 24.2 mph N/A Snow Light Snow
8:15 PM 31.5 °F 21.4 °F 28.4 °F 88% 29.87 in 2.5 mi North 13.8 mph 19.6 mph N/A Snow Light Snow
8:35 PM 31.5 °F 19.1 °F 28.4 °F 88% 29.87 in 2.0 mi North 20.7 mph 25.3 mph N/A Snow Light Snow
8:55 PM 31.6 °F 21.2 °F 28.4 °F 88% 29.89 in 2.0 mi North 15.0 mph 23.0 mph N/A Snow Light Snow
9:15 PM 32.0 °F 20.5 °F 27.5 °F 83% 29.89 in 4.0 mi North 18.4 mph 33.4 mph N/A   Haze
9:35 PM 32.0 °F 19.5 °F 27.5 °F 83% 29.89 in 4.0 mi North 21.9 mph 33.4 mph N/A   Haze
9:55 PM 32.0 °F 18.4 °F 27.1 °F 82% 29.90 in 3.0 mi North 26.5 mph 34.5 mph N/A Snow Light Snow
10:15 PM 31.6 °F 17.9 °F 27.1 °F 83% 29.91 in 2.5 mi North 26.5 mph 40.3 mph N/A Snow Light Snow
10:35 PM 31.6 °F 19.0 °F 27.3 °F 84% 29.93 in 4.0 mi North 21.9 mph 34.5 mph N/A   Overcast
10:55 PM 31.5 °F 17.9 °F 28.2 °F 88% 29.93 in 4.0 mi North 25.3 mph 36.8 mph N/A   Overcast
11:15 PM 30.7 °F 16.2 °F 27.5 °F 88% 29.93 in 3.0 mi North 28.8 mph 40.3 mph N/A Snow Light Snow
11:35 PM 30.2 °F 14.9 °F 26.6 °F 86% 29.94 in 1.8 mi North 31.1 mph 40.3 mph N/A Snow Light Snow
11:55 PM 29.5 °F 14.7 °F 26.1 °F 87% 29.94 in 3.0 mi North 27.6 mph 35.7 mph N/A Snow Light Snow